Weather forecast for Cergowa

Poland, 671 m
N49.532, E21.719


Sounding

Red line — air temperature ˚C.
Blue line — thermal bubble temperature ˚C.
Green line — dew point temperature ˚C.
Wind speed is in meters per second.

Table forecast

GFS 0.25˚ model

temp. wind gust humid. clouds prec. press. hpbl
Sat21 00:00 15 302.0 wnw 2 2 95 1 0.1 1013 27
03:00 14 305.0 nw 1 2 97 0 0.1 1013 23
06:00 14 302.0 wnw 1 2 97 0 0.0 1013 23
09:00 19 314.0 nw 1 3 79 0 0.0 1013 324
12:00 23 329.0 nnw 3 4 50 0 0.0 1013 1073
15:00 24 342.0 nnw 3 4 48 0 0.0 1012 1414
18:00 24 348.0 nnw 2 3 54 4 0.0 1012 1122
21:00 18 38.0 ne 1 2 79 10 0.0 1012 23
 
Sun22 00:00 15 113.0 ese 1 1 85 0 0.0 1013 23
03:00 14 153.0 sse 1 1 86 0 0.0 1012 23
06:00 13 154.0 sse 1 1 86 0 0.0 1012 23
09:00 20 91.0 e 1 1 65 0 0.0 1011 219
12:00 25 66.0 ene 2 2 51 0 0.0 1011 1135
15:00 26 42.0 ne 2 2 51 3 0.0 1010 1411
18:00 24 19.0 nne 1 2 62 31 0.5 1009 965
21:00 19 2.0 n 1 2 82 57 0.6 1009 23
 
Mon23 00:00 16 45.0 ne 1 1 94 2 0.0 1010 23
03:00 15 13.0 nne 1 1 94 1 0.0 1010 23
06:00 14 339.0 nnw 1 2 96 0 0.0 1010 26
09:00 19 346.0 nnw 2 4 81 0 0.0 1010 281
12:00 23 3.0 n 4 6 59 53 0.0 1009 1270
15:00 24 359.0 n 5 7 59 69 0.1 1009 1353
18:00 23 2.0 n 4 7 70 61 1.1 1008 1180
21:00 18 351.0 n 3 11 91 74 1.9 1010 371
 
Tue24 00:00 16 347.0 nnw 3 11 95 96 0.0 1011 343
03:00 15 345.0 nnw 3 11 98 82 0.0 1011 438
06:00 15 341.0 nnw 3 11 99 2 0.0 1011 470
09:00 17 346.0 nnw 4 10 90 21 0.0 1012 629
12:00 22 353.0 n 6 8 63 1 0.0 1012 1177
15:00 24 356.0 n 5 8 56 2 0.0 1011 1478
18:00 23 357.0 n 5 9 59 2 0.0 1010 1416
21:00 20 356.0 n 3 10 78 1 0.0 1011 550
 
Wed25 00:00 16 346.0 nnw 2 9 90 0 0.0 1012 222
03:00 15 335.0 nnw 2 7 97 0 0.0 1012 185
06:00 14 341.0 nnw 3 7 99 0 0.1 1012 274
09:00 17 347.0 nnw 3 8 92 21 0.3 1013 442
12:00 22 357.0 n 5 7 71 52 0.3 1012 1006
15:00 22 357.0 n 5 7 83 50 2.6 1011 1132
18:00 22 6.0 n 4 8 77 75 2.1 1011 1093
21:00 19 4.0 n 2 8 92 39 3.1 1011 265
 

0.012 s